sensor_id;sensor_type;location;lat;lon;timestamp;pressure;altitude;pressure_sealevel;temperature;humidity
37238;BME280;23129;49.662;8.448;2023-04-30T00:02:20;101159.91;;;13.65;nan
37238;BME280;23129;49.662;8.448;2023-04-30T00:04:49;101159.06;;;13.64;nan
37238;BME280;23129;49.662;8.448;2023-04-30T00:07:17;101152.03;;;13.63;nan
37238;BME280;23129;49.662;8.448;2023-04-30T00:09:47;101163.50;;;13.62;nan
37238;BME280;23129;49.662;8.448;2023-04-30T00:12:17;101158.31;;;13.59;nan
37238;BME280;23129;49.662;8.448;2023-04-30T00:14:46;101157.47;;;13.57;nan
37238;BME280;23129;49.662;8.448;2023-04-30T00:17:15;101168.00;;;13.59;nan
37238;BME280;23129;49.662;8.448;2023-04-30T00:19:44;101167.13;;;13.58;nan
37238;BME280;23129;49.662;8.448;2023-04-30T00:22:12;101164.50;;;13.58;nan
37238;BME280;23129;49.662;8.448;2023-04-30T00:24:41;101175.03;;;13.58;nan
37238;BME280;23129;49.662;8.448;2023-04-30T00:27:11;101160.09;;;13.59;nan
37238;BME280;23129;49.662;8.448;2023-04-30T00:29:40;101164.59;;;13.55;nan
37238;BME280;23129;49.662;8.448;2023-04-30T00:32:09;101173.38;;;13.54;nan
37238;BME280;23129;49.662;8.448;2023-04-30T00:34:37;101183.94;;;13.54;nan
37238;BME280;23129;49.662;8.448;2023-04-30T00:37:06;101174.31;;;13.52;nan
37238;BME280;23129;49.662;8.448;2023-04-30T00:39:35;101186.66;;;13.51;nan
37238;BME280;23129;49.662;8.448;2023-04-30T00:42:04;101187.56;;;13.50;nan
37238;BME280;23129;49.662;8.448;2023-04-30T00:44:33;101174.31;;;13.52;nan
37238;BME280;23129;49.662;8.448;2023-04-30T00:47:02;101171.75;;;13.50;nan
37238;BME280;23129;49.662;8.448;2023-04-30T00:49:31;101167.41;;;13.49;nan
37238;BME280;23129;49.662;8.448;2023-04-30T00:52:01;101171.84;;;13.47;nan
37238;BME280;23129;49.662;8.448;2023-04-30T00:54:30;101166.66;;;13.44;nan
37238;BME280;23129;49.662;8.448;2023-04-30T00:56:58;101166.66;;;13.44;nan
37238;BME280;23129;49.662;8.448;2023-04-30T00:59:27;101161.47;;;13.41;nan
37238;BME280;23129;49.662;8.448;2023-04-30T01:01:58;101167.63;;;13.40;nan
37238;BME280;23129;49.662;8.448;2023-04-30T01:04:28;101158.94;;;13.36;nan
37238;BME280;23129;49.662;8.448;2023-04-30T01:06:57;101160.78;;;13.34;nan
37238;BME280;23129;49.662;8.448;2023-04-30T01:09:27;101159.97;;;13.31;nan
37238;BME280;23129;49.662;8.448;2023-04-30T01:12:02;101160.81;;;13.33;nan
37238;BME280;23129;49.662;8.448;2023-04-30T01:14:47;101166.91;;;13.35;nan
37238;BME280;23129;49.662;8.448;2023-04-30T01:17:31;101164.22;;;13.36;nan
37238;BME280;23129;49.662;8.448;2023-04-30T01:20:01;101173.16;;;13.31;nan
37238;BME280;23129;49.662;8.448;2023-04-30T01:22:36;101162.63;;;13.31;nan
37238;BME280;23129;49.662;8.448;2023-04-30T01:25:34;101154.72;;;13.31;nan
37238;BME280;23129;49.662;8.448;2023-04-30T01:28:09;101168.03;;;13.26;nan
37238;BME280;23129;49.662;8.448;2023-04-30T01:30:41;101159.31;;;13.22;nan
37238;BME280;23129;49.662;8.448;2023-04-30T01:33:12;101162.03;;;13.19;nan
37238;BME280;23129;49.662;8.448;2023-04-30T01:36:08;101159.22;;;13.27;nan
37238;BME280;23129;49.662;8.448;2023-04-30T01:38:59;101162.75;;;13.26;nan
37238;BME280;23129;49.662;8.448;2023-04-30T01:41:34;101156.78;;;13.19;nan
37238;BME280;23129;49.662;8.448;2023-04-30T01:44:15;101154.69;;;13.32;nan
37238;BME280;23129;49.662;8.448;2023-04-30T01:47:01;101162.13;;;13.16;nan
37238;BME280;23129;49.662;8.448;2023-04-30T01:49:54;101162.03;;;13.19;nan
37238;BME280;23129;49.662;8.448;2023-04-30T01:52:34;101164.84;;;13.13;nan
37238;BME280;23129;49.662;8.448;2023-04-30T01:55:09;101170.19;;;13.10;nan
37238;BME280;23129;49.662;8.448;2023-04-30T01:57:41;101179.81;;;13.11;nan
37238;BME280;23129;49.662;8.448;2023-04-30T02:00:13;101172.81;;;13.10;nan
37238;BME280;23129;49.662;8.448;2023-04-30T02:02:43;101178.13;;;13.07;nan
37238;BME280;23129;49.662;8.448;2023-04-30T02:05:12;101169.34;;;13.08;nan
37238;BME280;23129;49.662;8.448;2023-04-30T02:07:45;101179.81;;;13.11;nan
37238;BME280;23129;49.662;8.448;2023-04-30T02:10:16;101176.34;;;13.09;nan
37238;BME280;23129;49.662;8.448;2023-04-30T02:12:45;101169.44;;;13.05;nan
37238;BME280;23129;49.662;8.448;2023-04-30T02:15:15;101165.03;;;13.06;nan
37238;BME280;23129;49.662;8.448;2023-04-30T02:17:43;101165.09;;;13.02;nan
37238;BME280;23129;49.662;8.448;2023-04-30T02:20:12;101172.16;;;13.02;nan
37238;BME280;23129;49.662;8.448;2023-04-30T02:22:42;101171.25;;;13.03;nan
37238;BME280;23129;49.662;8.448;2023-04-30T02:25:11;101165.09;;;13.02;nan
37238;BME280;23129;49.662;8.448;2023-04-30T02:27:40;101168.59;;;13.03;nan
37238;BME280;23129;49.662;8.448;2023-04-30T02:30:09;101166.03;;;13.01;nan
37238;BME280;23129;49.662;8.448;2023-04-30T02:32:40;101168.66;;;13.01;nan
37238;BME280;23129;49.662;8.448;2023-04-30T02:35:09;101164.34;;;12.99;nan
37238;BME280;23129;49.662;8.448;2023-04-30T02:37:38;101168.75;;;12.97;nan
37238;BME280;23129;49.662;8.448;2023-04-30T02:40:08;101160.91;;;12.95;nan
37238;BME280;23129;49.662;8.448;2023-04-30T02:42:37;101160.09;;;12.93;nan
37238;BME280;23129;49.662;8.448;2023-04-30T02:45:06;101165.34;;;12.93;nan
37238;BME280;23129;49.662;8.448;2023-04-30T02:47:35;101163.66;;;12.91;nan
37238;BME280;23129;49.662;8.448;2023-04-30T02:50:07;101161.88;;;12.93;nan
37238;BME280;23129;49.662;8.448;2023-04-30T02:52:36;101161.03;;;12.91;nan
37238;BME280;23129;49.662;8.448;2023-04-30T02:55:05;101158.41;;;12.91;nan
37238;BME280;23129;49.662;8.448;2023-04-30T02:57:34;101161.09;;;12.88;nan
37238;BME280;23129;49.662;8.448;2023-04-30T03:00:03;101165.53;;;12.86;nan
37238;BME280;23129;49.662;8.448;2023-04-30T03:02:33;101167.38;;;12.84;nan
37238;BME280;23129;49.662;8.448;2023-04-30T03:05:02;101170.00;;;12.84;nan
37238;BME280;23129;49.662;8.448;2023-04-30T03:07:32;101175.28;;;12.82;nan
37238;BME280;23129;49.662;8.448;2023-04-30T03:10:01;101178.00;;;12.79;nan
37238;BME280;23129;49.662;8.448;2023-04-30T03:12:29;101175.41;;;12.77;nan
37238;BME280;23129;49.662;8.448;2023-04-30T03:14:58;101181.53;;;12.78;nan
37238;BME280;23129;49.662;8.448;2023-04-30T03:17:27;101174.59;;;12.75;nan
37238;BME280;23129;49.662;8.448;2023-04-30T03:19:56;101166.69;;;12.75;nan
37238;BME280;23129;49.662;8.448;2023-04-30T03:22:25;101171.09;;;12.75;nan
37238;BME280;23129;49.662;8.448;2023-04-30T03:24:55;101163.22;;;12.73;nan
37238;BME280;23129;49.662;8.448;2023-04-30T03:27:23;101167.69;;;12.71;nan
37238;BME280;23129;49.662;8.448;2023-04-30T03:29:52;101158.94;;;12.69;nan
37238;BME280;23129;49.662;8.448;2023-04-30T03:32:21;101156.31;;;12.69;nan
37238;BME280;23129;49.662;8.448;2023-04-30T03:34:50;101151.91;;;12.70;nan
37238;BME280;23129;49.662;8.448;2023-04-30T03:37:19;101160.72;;;12.69;nan
37238;BME280;23129;49.662;8.448;2023-04-30T03:39:47;101160.75;;;12.67;nan
37238;BME280;23129;49.662;8.448;2023-04-30T03:42:17;101168.63;;;12.69;nan
37238;BME280;23129;49.662;8.448;2023-04-30T03:44:46;101162.53;;;12.65;nan
37238;BME280;23129;49.662;8.448;2023-04-30T03:47:14;101166.91;;;12.66;nan
37238;BME280;23129;49.662;8.448;2023-04-30T03:49:43;101161.72;;;12.63;nan
37238;BME280;23129;49.662;8.448;2023-04-30T03:52:12;101163.53;;;12.61;nan
37238;BME280;23129;49.662;8.448;2023-04-30T03:54:41;101160.06;;;12.59;nan
37238;BME280;23129;49.662;8.448;2023-04-30T03:57:10;101161.84;;;12.59;nan
37238;BME280;23129;49.662;8.448;2023-04-30T03:59:41;101158.25;;;12.61;nan
37238;BME280;23129;49.662;8.448;2023-04-30T04:02:10;101154.00;;;12.57;nan
37238;BME280;23129;49.662;8.448;2023-04-30T04:04:39;101155.75;;;12.56;nan
37238;BME280;23129;49.662;8.448;2023-04-30T04:07:08;101156.69;;;12.54;nan
37238;BME280;23129;49.662;8.448;2023-04-30T04:09:37;101163.69;;;12.55;nan
37238;BME280;23129;49.662;8.448;2023-04-30T04:12:06;101167.22;;;12.54;nan
37238;BME280;23129;49.662;8.448;2023-04-30T04:14:35;101168.09;;;12.53;nan
37238;BME280;23129;49.662;8.448;2023-04-30T04:17:05;101177.75;;;12.54;nan
37238;BME280;23129;49.662;8.448;2023-04-30T04:19:34;101172.50;;;12.54;nan
37238;BME280;23129;49.662;8.448;2023-04-30T04:22:03;101170.75;;;12.53;nan
37238;BME280;23129;49.662;8.448;2023-04-30T04:24:32;101176.00;;;12.53;nan
37238;BME280;23129;49.662;8.448;2023-04-30T04:27:01;101174.28;;;12.52;nan
37238;BME280;23129;49.662;8.448;2023-04-30T04:29:30;101175.19;;;12.51;nan
37238;BME280;23129;49.662;8.448;2023-04-30T04:31:59;101174.28;;;12.52;nan
37238;BME280;23129;49.662;8.448;2023-04-30T04:34:31;101181.25;;;12.53;nan
37238;BME280;23129;49.662;8.448;2023-04-30T04:36:59;101181.25;;;12.53;nan
37238;BME280;23129;49.662;8.448;2023-04-30T04:39:28;101187.41;;;12.53;nan
37238;BME280;23129;49.662;8.448;2023-04-30T04:41:57;101180.34;;;12.55;nan
37238;BME280;23129;49.662;8.448;2023-04-30T04:44:26;101189.06;;;12.57;nan
37238;BME280;23129;49.662;8.448;2023-04-30T04:46:55;101186.38;;;12.59;nan
37238;BME280;23129;49.662;8.448;2023-04-30T04:49:24;101189.91;;;12.58;nan
37238;BME280;23129;49.662;8.448;2023-04-30T04:51:54;101195.97;;;12.62;nan
37238;BME280;23129;49.662;8.448;2023-04-30T04:54:23;101194.25;;;12.61;nan
37238;BME280;23129;49.662;8.448;2023-04-30T04:56:51;101182.81;;;12.62;nan
37238;BME280;23129;49.662;8.448;2023-04-30T04:59:20;101199.47;;;12.62;nan
37238;BME280;23129;49.662;8.448;2023-04-30T05:01:49;101188.06;;;12.63;nan
37238;BME280;23129;49.662;8.448;2023-04-30T05:04:17;101186.31;;;12.62;nan
37238;BME280;23129;49.662;8.448;2023-04-30T05:06:46;101184.50;;;12.64;nan
37238;BME280;23129;49.662;8.448;2023-04-30T05:09:15;101181.81;;;12.67;nan
37238;BME280;23129;49.662;8.448;2023-04-30T05:11:45;101186.16;;;12.68;nan
37238;BME280;23129;49.662;8.448;2023-04-30T05:14:15;101182.63;;;12.69;nan
37238;BME280;23129;49.662;8.448;2023-04-30T05:16:44;101188.75;;;12.71;nan
37238;BME280;23129;49.662;8.448;2023-04-30T05:19:13;101182.47;;;12.75;nan
37238;BME280;23129;49.662;8.448;2023-04-30T05:21:41;101185.13;;;12.75;nan
37238;BME280;23129;49.662;8.448;2023-04-30T05:24:10;101195.56;;;12.78;nan
37238;BME280;23129;49.662;8.448;2023-04-30T05:26:40;101189.22;;;12.86;nan
37238;BME280;23129;49.662;8.448;2023-04-30T05:29:08;101176.94;;;12.86;nan
37238;BME280;23129;49.662;8.448;2023-04-30T05:31:38;101184.81;;;12.88;nan
37238;BME280;23129;49.662;8.448;2023-04-30T05:34:07;101183.88;;;12.90;nan
37238;BME280;23129;49.662;8.448;2023-04-30T05:36:36;101190.81;;;12.93;nan
37238;BME280;23129;49.662;8.448;2023-04-30T05:39:05;101192.53;;;12.95;nan
37238;BME280;23129;49.662;8.448;2023-04-30T05:41:33;101190.66;;;12.99;nan
37238;BME280;23129;49.662;8.448;2023-04-30T05:44:04;101194.91;;;13.05;nan
37238;BME280;23129;49.662;8.448;2023-04-30T05:46:32;101194.84;;;13.08;nan
37238;BME280;23129;49.662;8.448;2023-04-30T05:49:02;101204.38;;;13.12;nan
37238;BME280;23129;49.662;8.448;2023-04-30T05:51:31;101195.53;;;13.14;nan
37238;BME280;23129;49.662;8.448;2023-04-30T05:54:00;101200.63;;;13.20;nan
37238;BME280;23129;49.662;8.448;2023-04-30T05:56:29;101204.09;;;13.22;nan
37238;BME280;23129;49.662;8.448;2023-04-30T05:58:57;101204.06;;;13.26;nan
37238;BME280;23129;49.662;8.448;2023-04-30T06:01:27;101198.63;;;13.32;nan
37238;BME280;23129;49.662;8.448;2023-04-30T06:03:56;101204.66;;;13.35;nan
37238;BME280;23129;49.662;8.448;2023-04-30T06:06:25;101207.06;;;13.43;nan
37238;BME280;23129;49.662;8.448;2023-04-30T06:08:55;101206.94;;;13.49;nan
37238;BME280;23129;49.662;8.448;2023-04-30T06:11:23;101195.31;;;13.55;nan
37238;BME280;23129;49.662;8.448;2023-04-30T06:13:53;101197.78;;;13.61;nan
37238;BME280;23129;49.662;8.448;2023-04-30T06:16:22;101196.66;;;13.69;nan
37238;BME280;23129;49.662;8.448;2023-04-30T06:18:52;101195.50;;;13.80;nan
37238;BME280;23129;49.662;8.448;2023-04-30T06:21:21;101197.03;;;13.87;nan
37238;BME280;23129;49.662;8.448;2023-04-30T06:23:52;101201.19;;;13.96;nan
37238;BME280;23129;49.662;8.448;2023-04-30T06:26:21;101195.78;;;14.00;nan
37238;BME280;23129;49.662;8.448;2023-04-30T06:28:49;101196.41;;;14.08;nan
37238;BME280;23129;49.662;8.448;2023-04-30T06:31:18;101202.28;;;14.18;nan
37238;BME280;23129;49.662;8.448;2023-04-30T06:33:47;101199.38;;;14.26;nan
37238;BME280;23129;49.662;8.448;2023-04-30T06:36:17;101195.50;;;14.37;nan
37238;BME280;23129;49.662;8.448;2023-04-30T06:38:47;101200.56;;;14.45;nan
37238;BME280;23129;49.662;8.448;2023-04-30T06:41:15;101193.16;;;14.56;nan
37238;BME280;23129;49.662;8.448;2023-04-30T06:43:44;101191.03;;;14.68;nan
37238;BME280;23129;49.662;8.448;2023-04-30T06:46:13;101196.94;;;14.76;nan
37238;BME280;23129;49.662;8.448;2023-04-30T06:48:42;101190.53;;;14.83;nan
37238;BME280;23129;49.662;8.448;2023-04-30T06:51:11;101194.59;;;14.93;nan
37238;BME280;23129;49.662;8.448;2023-04-30T06:53:41;101193.16;;;15.10;nan
37238;BME280;23129;49.662;8.448;2023-04-30T06:56:09;101197.91;;;15.25;nan
37238;BME280;23129;49.662;8.448;2023-04-30T06:58:38;101197.34;;;15.40;nan
37238;BME280;23129;49.662;8.448;2023-04-30T07:01:06;101201.34;;;15.52;nan
37238;BME280;23129;49.662;8.448;2023-04-30T07:03:35;101201.91;;;15.62;nan
37238;BME280;23129;49.662;8.448;2023-04-30T07:06:04;101199.84;;;15.70;nan
37238;BME280;23129;49.662;8.448;2023-04-30T07:08:33;101197.78;;;15.78;nan
37238;BME280;23129;49.662;8.448;2023-04-30T07:11:03;101196.47;;;15.90;nan
37238;BME280;23129;49.662;8.448;2023-04-30T07:13:31;101201.47;;;15.97;nan
37238;BME280;23129;49.662;8.448;2023-04-30T07:16:01;101194.94;;;16.06;nan
37238;BME280;23129;49.662;8.448;2023-04-30T07:18:32;101189.34;;;16.14;nan
37238;BME280;23129;49.662;8.448;2023-04-30T07:21:00;101191.75;;;16.20;nan
37238;BME280;23129;49.662;8.448;2023-04-30T07:23:29;101184.31;;;16.30;nan
37238;BME280;23129;49.662;8.448;2023-04-30T07:25:58;101184.72;;;16.42;nan
37238;BME280;23129;49.662;8.448;2023-04-30T07:28:28;101190.44;;;16.74;nan
37238;BME280;23129;49.662;8.448;2023-04-30T07:30:56;101184.28;;;17.16;nan
37238;BME280;23129;49.662;8.448;2023-04-30T07:33:25;101183.47;;;17.55;nan
37238;BME280;23129;49.662;8.448;2023-04-30T07:35:54;101182.97;;;17.86;nan
37238;BME280;23129;49.662;8.448;2023-04-30T07:38:24;101178.97;;;18.33;nan
37238;BME280;23129;49.662;8.448;2023-04-30T07:40:53;101176.91;;;18.93;nan
37238;BME280;23129;49.662;8.448;2023-04-30T07:43:22;101179.03;;;19.54;nan
37238;BME280;23129;49.662;8.448;2023-04-30T07:45:52;101172.59;;;20.08;nan
37238;BME280;23129;49.662;8.448;2023-04-30T07:48:21;101173.25;;;20.43;nan
37238;BME280;23129;49.662;8.448;2023-04-30T07:50:50;101165.84;;;20.64;nan
37238;BME280;23129;49.662;8.448;2023-04-30T07:53:19;101159.63;;;20.79;nan
37238;BME280;23129;49.662;8.448;2023-04-30T07:55:47;101170.91;;;20.98;nan
37238;BME280;23129;49.662;8.448;2023-04-30T07:58:16;101170.34;;;21.08;nan
37238;BME280;23129;49.662;8.448;2023-04-30T08:00:45;101177.22;;;21.12;nan
37238;BME280;23129;49.662;8.448;2023-04-30T08:03:15;101171.72;;;21.29;nan
37238;BME280;23129;49.662;8.448;2023-04-30T08:05:45;101167.75;;;21.51;nan
37238;BME280;23129;49.662;8.448;2023-04-30T08:08:15;101164.69;;;21.71;nan
37238;BME280;23129;49.662;8.448;2023-04-30T08:10:43;101166.97;;;21.92;nan
37238;BME280;23129;49.662;8.448;2023-04-30T08:13:12;101166.56;;;22.12;nan
37238;BME280;23129;49.662;8.448;2023-04-30T08:15:41;101159.06;;;22.31;nan
37238;BME280;23129;49.662;8.448;2023-04-30T08:18:09;101157.47;;;22.56;nan
37238;BME280;23129;49.662;8.448;2023-04-30T08:20:39;101166.31;;;22.84;nan
37238;BME280;23129;49.662;8.448;2023-04-30T08:23:08;101164.44;;;23.11;nan
37238;BME280;23129;49.662;8.448;2023-04-30T08:25:37;101166.16;;;23.38;nan
37238;BME280;23129;49.662;8.448;2023-04-30T08:28:05;101156.28;;;23.64;nan
37238;BME280;23129;49.662;8.448;2023-04-30T08:30:34;101158.66;;;23.81;nan
37238;BME280;23129;49.662;8.448;2023-04-30T08:33:03;101158.84;;;23.91;nan
37238;BME280;23129;49.662;8.448;2023-04-30T08:35:32;101153.66;;;24.01;nan
37238;BME280;23129;49.662;8.448;2023-04-30T08:38:02;101153.81;;;24.10;nan
37238;BME280;23129;49.662;8.448;2023-04-30T08:40:34;101157.88;;;24.16;nan
37238;BME280;23129;49.662;8.448;2023-04-30T08:43:17;101153.97;;;24.33;nan
37238;BME280;23129;49.662;8.448;2023-04-30T08:45:46;101162.13;;;24.55;nan
37238;BME280;23129;49.662;8.448;2023-04-30T08:48:18;101155.66;;;24.82;nan
37238;BME280;23129;49.662;8.448;2023-04-30T08:50:48;101155.97;;;25.01;nan
37238;BME280;23129;49.662;8.448;2023-04-30T08:53:18;101152.50;;;25.35;nan
37238;BME280;23129;49.662;8.448;2023-04-30T08:55:48;101155.06;;;25.59;nan
37238;BME280;23129;49.662;8.448;2023-04-30T08:58:17;101150.91;;;25.66;nan
37238;BME280;23129;49.662;8.448;2023-04-30T09:00:46;101155.81;;;25.94;nan
37238;BME280;23129;49.662;8.448;2023-04-30T09:03:15;101152.97;;;26.07;nan
37238;BME280;23129;49.662;8.448;2023-04-30T09:05:44;101160.94;;;25.98;nan
37238;BME280;23129;49.662;8.448;2023-04-30T09:08:18;101161.09;;;25.85;nan
37238;BME280;23129;49.662;8.448;2023-04-30T09:10:47;101158.75;;;25.91;nan
37238;BME280;23129;49.662;8.448;2023-04-30T09:13:16;101157.50;;;25.73;nan
37238;BME280;23129;49.662;8.448;2023-04-30T09:15:49;101156.28;;;25.32;nan
37238;BME280;23129;49.662;8.448;2023-04-30T09:18:19;101153.09;;;25.72;nan
37238;BME280;23129;49.662;8.448;2023-04-30T09:20:55;101148.94;;;25.90;nan
37238;BME280;23129;49.662;8.448;2023-04-30T09:23:26;101151.03;;;25.98;nan
37238;BME280;23129;49.662;8.448;2023-04-30T09:25:55;101151.88;;;25.54;nan
37238;BME280;23129;49.662;8.448;2023-04-30T09:28:24;101141.22;;;25.07;nan
37238;BME280;23129;49.662;8.448;2023-04-30T09:30:56;101149.50;;;25.04;nan
37238;BME280;23129;49.662;8.448;2023-04-30T09:33:25;101136.66;;;24.96;nan
37238;BME280;23129;49.662;8.448;2023-04-30T09:35:53;101140.41;;;24.82;nan
37238;BME280;23129;49.662;8.448;2023-04-30T09:38:27;101148.16;;;24.39;nan
37238;BME280;23129;49.662;8.448;2023-04-30T09:40:58;101142.38;;;24.08;nan
37238;BME280;23129;49.662;8.448;2023-04-30T09:43:28;101135.81;;;24.36;nan
37238;BME280;23129;49.662;8.448;2023-04-30T09:45:58;101136.81;;;24.71;nan
37238;BME280;23129;49.662;8.448;2023-04-30T09:48:27;101138.13;;;24.89;nan
37238;BME280;23129;49.662;8.448;2023-04-30T09:50:56;101124.78;;;25.34;nan
37238;BME280;23129;49.662;8.448;2023-04-30T09:53:26;101132.94;;;25.78;nan
37238;BME280;23129;49.662;8.448;2023-04-30T09:55:58;101127.94;;;26.39;nan
37238;BME280;23129;49.662;8.448;2023-04-30T09:58:31;101127.78;;;26.94;nan
37238;BME280;23129;49.662;8.448;2023-04-30T10:01:04;101131.78;;;27.41;nan
37238;BME280;23129;49.662;8.448;2023-04-30T10:03:34;101126.13;;;27.85;nan
37238;BME280;23129;49.662;8.448;2023-04-30T10:06:06;101118.09;;;28.23;nan
37238;BME280;23129;49.662;8.448;2023-04-30T10:08:39;101118.41;;;28.59;nan
37238;BME280;23129;49.662;8.448;2023-04-30T10:11:09;101115.88;;;28.48;nan
37238;BME280;23129;49.662;8.448;2023-04-30T10:13:47;101113.44;;;28.64;nan
37238;BME280;23129;49.662;8.448;2023-04-30T10:16:29;101105.88;;;28.87;nan
37238;BME280;23129;49.662;8.448;2023-04-30T10:19:08;101108.59;;;28.68;nan
37238;BME280;23129;49.662;8.448;2023-04-30T10:21:39;101099.66;;;28.67;nan
37238;BME280;23129;49.662;8.448;2023-04-30T10:24:12;101105.03;;;28.87;nan
37238;BME280;23129;49.662;8.448;2023-04-30T10:26:41;101101.19;;;28.80;nan
37238;BME280;23129;49.662;8.448;2023-04-30T10:29:12;101093.38;;;28.77;nan
37238;BME280;23129;49.662;8.448;2023-04-30T10:31:44;101096.38;;;28.64;nan
37238;BME280;23129;49.662;8.448;2023-04-30T10:34:21;101087.13;;;28.08;nan
37238;BME280;23129;49.662;8.448;2023-04-30T10:36:56;101082.75;;;27.57;nan
37238;BME280;23129;49.662;8.448;2023-04-30T10:39:28;101091.41;;;27.61;nan
37238;BME280;23129;49.662;8.448;2023-04-30T10:42:01;101086.16;;;27.59;nan
37238;BME280;23129;49.662;8.448;2023-04-30T10:44:31;101082.97;;;27.35;nan
37238;BME280;23129;49.662;8.448;2023-04-30T10:47:02;101087.56;;;27.53;nan
37238;BME280;23129;49.662;8.448;2023-04-30T10:49:31;101076.91;;;27.52;nan
37238;BME280;23129;49.662;8.448;2023-04-30T10:52:01;101072.34;;;27.12;nan
37238;BME280;23129;49.662;8.448;2023-04-30T10:54:34;101070.91;;;26.45;nan
37238;BME280;23129;49.662;8.448;2023-04-30T10:57:10;101079.94;;;25.91;nan
37238;BME280;23129;49.662;8.448;2023-04-30T10:59:51;101072.28;;;25.41;nan
37238;BME280;23129;49.662;8.448;2023-04-30T11:02:19;101073.72;;;25.12;nan
37238;BME280;23129;49.662;8.448;2023-04-30T11:05:08;101074.94;;;24.96;nan
37238;BME280;23129;49.662;8.448;2023-04-30T11:07:46;101078.28;;;24.65;nan
37238;BME280;23129;49.662;8.448;2023-04-30T11:10:22;101068.06;;;24.81;nan
37238;BME280;23129;49.662;8.448;2023-04-30T11:12:53;101060.53;;;24.86;nan
37238;BME280;23129;49.662;8.448;2023-04-30T11:15:25;101061.47;;;24.85;nan
37238;BME280;23129;49.662;8.448;2023-04-30T11:17:56;101064.00;;;25.22;nan
37238;BME280;23129;49.662;8.448;2023-04-30T11:20:26;101051.03;;;25.61;nan
37238;BME280;23129;49.662;8.448;2023-04-30T11:23:09;101051.31;;;25.90;nan
37238;BME280;23129;49.662;8.448;2023-04-30T11:25:45;101043.16;;;25.69;nan
37238;BME280;23129;49.662;8.448;2023-04-30T11:28:17;101049.28;;;25.82;nan
37238;BME280;23129;49.662;8.448;2023-04-30T11:30:51;101050.53;;;25.67;nan
37238;BME280;23129;49.662;8.448;2023-04-30T11:33:20;101043.91;;;25.82;nan
37238;BME280;23129;49.662;8.448;2023-04-30T11:35:50;101048.84;;;25.98;nan
37238;BME280;23129;49.662;8.448;2023-04-30T11:38:20;101050.47;;;25.89;nan
37238;BME280;23129;49.662;8.448;2023-04-30T11:40:51;101034.69;;;25.96;nan
37238;BME280;23129;49.662;8.448;2023-04-30T11:43:25;101035.72;;;25.84;nan
37238;BME280;23129;49.662;8.448;2023-04-30T11:46:05;101032.28;;;26.14;nan
37238;BME280;23129;49.662;8.448;2023-04-30T11:48:35;101030.00;;;26.62;nan
37238;BME280;23129;49.662;8.448;2023-04-30T11:51:13;101024.47;;;27.16;nan
37238;BME280;23129;49.662;8.448;2023-04-30T11:53:44;101033.16;;;27.29;nan
37238;BME280;23129;49.662;8.448;2023-04-30T11:56:16;101026.78;;;27.30;nan
37238;BME280;23129;49.662;8.448;2023-04-30T11:58:46;101025.53;;;27.13;nan
37238;BME280;23129;49.662;8.448;2023-04-30T12:01:15;101023.59;;;27.15;nan
37238;BME280;23129;49.662;8.448;2023-04-30T12:03:46;101026.81;;;27.40;nan
37238;BME280;23129;49.662;8.448;2023-04-30T12:06:21;101008.19;;;27.87;nan
37238;BME280;23129;49.662;8.448;2023-04-30T12:08:52;101014.16;;;27.81;nan
37238;BME280;23129;49.662;8.448;2023-04-30T12:11:24;101007.63;;;27.83;nan
37238;BME280;23129;49.662;8.448;2023-04-30T12:13:54;101010.19;;;28.04;nan
37238;BME280;23129;49.662;8.448;2023-04-30T12:16:23;101001.97;;;28.15;nan
37238;BME280;23129;49.662;8.448;2023-04-30T12:18:52;101005.06;;;28.20;nan
37238;BME280;23129;49.662;8.448;2023-04-30T12:21:22;101001.66;;;27.99;nan
37238;BME280;23129;49.662;8.448;2023-04-30T12:23:51;100998.41;;;27.95;nan
37238;BME280;23129;49.662;8.448;2023-04-30T12:26:19;101005.63;;;28.14;nan
37238;BME280;23129;49.662;8.448;2023-04-30T12:28:51;101003.09;;;28.42;nan
37238;BME280;23129;49.662;8.448;2023-04-30T12:31:19;100990.72;;;28.20;nan
37238;BME280;23129;49.662;8.448;2023-04-30T12:33:55;101000.53;;;28.21;nan
37238;BME280;23129;49.662;8.448;2023-04-30T12:36:29;100992.84;;;27.97;nan
37238;BME280;23129;49.662;8.448;2023-04-30T12:39:05;100993.84;;;27.76;nan
37238;BME280;23129;49.662;8.448;2023-04-30T12:41:38;100992.16;;;28.05;nan
37238;BME280;23129;49.662;8.448;2023-04-30T12:44:16;100992.41;;;28.31;nan
37238;BME280;23129;49.662;8.448;2023-04-30T12:46:46;100988.59;;;28.43;nan
37238;BME280;23129;49.662;8.448;2023-04-30T12:49:25;100984.03;;;28.34;nan
37238;BME280;23129;49.662;8.448;2023-04-30T12:51:58;100973.00;;;27.88;nan
37238;BME280;23129;49.662;8.448;2023-04-30T12:54:30;100971.50;;;27.55;nan
37238;BME280;23129;49.662;8.448;2023-04-30T12:57:00;100966.44;;;27.71;nan
37238;BME280;23129;49.662;8.448;2023-04-30T12:59:32;100969.72;;;28.04;nan
37238;BME280;23129;49.662;8.448;2023-04-30T13:02:07;100969.00;;;28.02;nan
37238;BME280;23129;49.662;8.448;2023-04-30T13:04:36;100958.19;;;27.73;nan
37238;BME280;23129;49.662;8.448;2023-04-30T13:07:05;100960.13;;;27.22;nan
37238;BME280;23129;49.662;8.448;2023-04-30T13:09:35;100961.03;;;26.71;nan
37238;BME280;23129;49.662;8.448;2023-04-30T13:12:04;100956.47;;;26.20;nan
37238;BME280;23129;49.662;8.448;2023-04-30T13:14:34;100950.28;;;26.29;nan
37238;BME280;23129;49.662;8.448;2023-04-30T13:17:03;100947.00;;;26.98;nan
37238;BME280;23129;49.662;8.448;2023-04-30T13:19:33;100950.84;;;27.85;nan
37238;BME280;23129;49.662;8.448;2023-04-30T13:22:02;100937.50;;;28.12;nan
37238;BME280;23129;49.662;8.448;2023-04-30T13:24:31;100941.22;;;27.92;nan
37238;BME280;23129;49.662;8.448;2023-04-30T13:27:00;100931.69;;;28.07;nan
37238;BME280;23129;49.662;8.448;2023-04-30T13:29:28;100931.50;;;28.28;nan